Time;durP1;ratioP1;P1;durP2;ratioP2;P2;SDS_P1;SDS_P2;PMS_P1;PMS_P2;Temp;Humidity;BMP_temperature;BMP_pressure;BME280_temperature;BME280_humidity;BME280_pressure;Samples;Min_cycle;Max_cycle;Signal;HPM_P1;HPM_P2
2021/04/08 00:01:20;;;;;;;38.13;23.60;;;;;;;10.50;79.57;99682.94;1775082;81;21169;-61
2021/04/08 00:03:54;;;;;;;40.90;20.70;;;;;;;10.51;79.27;99671.95;1772671;80;21700;-62
2021/04/08 00:06:27;;;;;;;37.20;19.95;;;;;;;10.51;79.12;99662.31;1770274;81;21807;-61
2021/04/08 00:09:01;;;;;;;31.50;18.57;;;;;;;10.50;79.02;99658.55;1768578;81;21708;-61
2021/04/08 00:11:34;;;;;;;35.38;18.45;;;;;;;10.48;79.08;99637.78;1770278;81;21268;-60
2021/04/08 00:14:09;;;;;;;31.48;17.77;;;;;;;10.49;79.14;99652.48;1769540;81;21704;-61
2021/04/08 00:16:42;;;;;;;40.00;17.65;;;;;;;10.51;79.16;99651.84;1769138;81;21137;-61
2021/04/08 00:19:15;;;;;;;33.10;17.40;;;;;;;10.51;79.23;99651.02;1770583;80;21204;-61
2021/04/08 00:21:49;;;;;;;31.05;16.77;;;;;;;10.50;79.21;99653.31;1770238;81;22470;-62
2021/04/08 00:24:22;;;;;;;28.60;14.05;;;;;;;10.48;79.31;99651.34;1769813;80;21323;-60
2021/04/08 00:26:55;;;;;;;33.08;15.83;;;;;;;10.43;79.44;99668.80;1770428;81;21268;-61
2021/04/08 00:29:28;;;;;;;36.65;15.65;;;;;;;10.40;79.59;99675.63;1769954;80;21290;-60
2021/04/08 00:32:01;;;;;;;34.75;16.95;;;;;;;10.38;79.77;99678.89;1770258;81;21785;-61
2021/04/08 00:34:34;;;;;;;36.95;16.73;;;;;;;10.39;79.86;99671.36;1769938;80;21260;-60
2021/04/08 00:37:07;;;;;;;45.95;18.45;;;;;;;10.38;79.93;99664.98;1770207;81;21761;-62
2021/04/08 00:39:40;;;;;;;41.28;18.23;;;;;;;10.37;80.03;99660.70;1769920;80;21248;-60
2021/04/08 00:42:13;;;;;;;51.30;22.27;;;;;;;10.33;80.11;99658.05;1770106;81;21181;-61
2021/04/08 00:44:46;;;;;;;51.60;22.52;;;;;;;10.32;80.21;99681.28;1770054;80;21315;-59
2021/04/08 00:47:20;;;;;;;38.48;17.55;;;;;;;10.30;80.31;99701.03;1770279;81;21181;-61
2021/04/08 00:49:53;;;;;;;32.37;15.17;;;;;;;10.31;80.44;99700.08;1770934;81;21276;-61
2021/04/08 00:52:26;;;;;;;39.15;16.62;;;;;;;10.34;80.53;99712.05;1770130;81;21975;-61
2021/04/08 00:54:59;;;;;;;35.95;16.70;;;;;;;10.34;80.52;99719.37;1770244;80;21708;-61
2021/04/08 00:57:32;;;;;;;39.92;17.12;;;;;;;10.35;80.58;99717.59;1770211;81;21249;-61
2021/04/08 01:00:07;;;;;;;48.07;18.23;;;;;;;10.34;80.56;99724.61;1770128;80;21149;-62
2021/04/08 01:02:40;;;;;;;37.93;17.75;;;;;;;10.34;80.65;99718.58;1773674;81;21260;-61
2021/04/08 01:05:13;;;;;;;29.50;16.50;;;;;;;10.35;80.68;99726.75;1768651;81;21272;-61
2021/04/08 01:07:48;;;;;;;31.95;16.27;;;;;;;10.38;80.75;99734.31;1768364;81;21672;-61
2021/04/08 01:10:24;;;;;;;31.90;15.93;;;;;;;10.39;80.89;99732.05;1769521;81;22129;-61
2021/04/08 01:12:58;;;;;;;28.92;16.60;;;;;;;10.37;80.95;99736.10;1769758;81;21783;-61
2021/04/08 01:15:31;;;;;;;31.27;17.48;;;;;;;10.41;81.09;99739.27;1769912;81;21272;-60
2021/04/08 01:18:31;;;;;;;32.48;16.40;;;;;;;10.42;81.28;99735.18;1769923;81;21138;-61
2021/04/08 01:21:39;;;;;;;31.50;16.37;;;;;;;10.41;81.46;99739.27;1769764;81;21307;-62
2021/04/08 01:24:52;;;;;;;34.55;15.93;;;;;;;10.36;81.77;99737.09;1768621;81;21759;-61
2021/04/08 01:27:30;;;;;;;33.58;17.12;;;;;;;10.35;82.02;99746.38;1769945;81;21252;-61
2021/04/08 01:30:13;;;;;;;35.78;21.10;;;;;;;10.36;82.18;99742.80;1768776;81;21284;-62
2021/04/08 01:32:51;;;;;;;31.97;16.00;;;;;;;10.37;82.21;99747.88;1770235;81;21261;-60
2021/04/08 01:35:29;;;;;;;33.48;17.15;;;;;;;10.37;82.40;99753.59;1769842;80;21301;-60
2021/04/08 01:38:13;;;;;;;29.07;15.40;;;;;;;10.37;82.51;99754.90;1769620;81;21261;-61
2021/04/08 01:40:48;;;;;;;29.67;16.45;;;;;;;10.38;82.60;99760.48;1768459;81;21169;-61
2021/04/08 01:43:25;;;;;;;26.62;15.13;;;;;;;10.38;82.67;99758.70;1769722;81;22189;-61
2021/04/08 01:45:59;;;;;;;26.05;15.23;;;;;;;10.42;82.81;99776.22;1769819;80;21173;-61
2021/04/08 01:48:33;;;;;;;29.45;16.23;;;;;;;10.46;82.87;99782.83;1769894;81;21828;-61
2021/04/08 01:51:07;;;;;;;12.60;7.70;;;;;;;10.48;82.81;99814.42;1770880;81;21200;-62
2021/04/08 01:53:45;;;;;;;7.65;5.17;;;;;;;10.46;80.82;99792.78;1769811;81;21256;-61
2021/04/08 01:56:21;;;;;;;8.80;6.12;;;;;;;10.36;78.26;99786.80;1769353;81;21295;-61
2021/04/08 01:58:53;;;;;;;7.92;4.55;;;;;;;10.25;76.91;99789.59;1770096;81;21288;-61
2021/04/08 02:01:26;;;;;;;6.50;4.47;;;;;;;10.13;75.49;99794.67;1769731;80;21283;-61
2021/04/08 02:04:00;;;;;;;5.72;4.00;;;;;;;10.01;74.83;99812.78;1770429;81;21193;-61
2021/04/08 02:06:33;;;;;;;5.97;3.83;;;;;;;9.90;74.24;99807.27;1771674;81;21162;-61
2021/04/08 02:09:06;;;;;;;4.53;3.70;;;;;;;9.82;74.00;99813.67;1745110;81;21843;-62
2021/04/08 02:11:39;;;;;;;5.33;3.92;;;;;;;9.77;73.72;99822.42;1774910;79;21230;-61
2021/04/08 02:14:14;;;;;;;4.25;3.55;;;;;;;9.74;73.33;99829.73;1775007;81;21142;-61
2021/04/08 02:16:49;;;;;;;4.83;3.50;;;;;;;9.67;73.18;99829.96;1744452;81;21507;-61
2021/04/08 02:19:22;;;;;;;4.62;3.45;;;;;;;9.61;73.10;99839.17;1775550;81;21204;-61
2021/04/08 02:21:55;;;;;;;4.92;3.30;;;;;;;9.58;72.93;99854.33;1776916;81;21173;-61
2021/04/08 02:24:28;;;;;;;8.20;4.75;;;;;;;9.54;72.85;99852.94;1775190;81;21693;-61
2021/04/08 02:27:02;;;;;;;15.27;7.63;;;;;;;9.50;72.89;99853.71;1774335;81;21787;-61
2021/04/08 02:29:35;;;;;;;17.90;10.03;;;;;;;9.49;72.56;99852.05;1772126;81;22073;-62
2021/04/08 02:32:09;;;;;;;;;;;;;;;9.48;72.51;99859.56;1775981;81;21169;-62
2021/04/08 02:34:42;;;;;;;10.48;6.60;;;;;;;9.47;72.08;99878.80;1773039;81;20582;-63
2021/04/08 02:37:14;;;;;;;8.05;4.40;;;;;;;9.42;72.02;99884.45;1772900;79;21819;-62
2021/04/08 02:39:48;;;;;;;5.77;3.60;;;;;;;9.39;71.96;99891.24;1774445;81;21260;-62
2021/04/08 02:42:21;;;;;;;;;;;;;;;9.35;71.67;99899.49;1773365;79;21807;-61
2021/04/08 02:44:54;;;;;;;6.00;3.47;;;;;;;9.29;71.60;99907.89;1771780;81;20286;-61
2021/04/08 02:47:28;;;;;;;6.42;3.90;;;;;;;9.20;71.53;99932.19;1772421;81;21315;-61
2021/04/08 02:50:01;;;;;;;2.92;2.10;;;;;;;9.16;71.67;99930.81;1771303;81;22126;-63
2021/04/08 02:52:51;;;;;;;5.70;3.42;;;;;;;9.09;71.68;99946.68;1773758;80;21145;-62
2021/04/08 02:55:37;;;;;;;5.50;3.50;;;;;;;9.02;72.05;99947.70;1764937;80;21302;-63
2021/04/08 02:58:11;;;;;;;6.97;3.72;;;;;;;9.00;72.27;99970.98;1772025;79;21696;-62
2021/04/08 03:00:54;;;;;;;5.58;3.98;;;;;;;8.98;72.35;99974.21;1742608;81;21562;-62
2021/04/08 03:03:34;;;;;;;12.43;6.20;;;;;;;8.93;72.10;99982.92;1769746;81;21319;-62
2021/04/08 03:06:08;;;;;;;9.73;4.55;;;;;;;8.86;71.65;99993.03;1770319;81;21304;-61
2021/04/08 03:08:42;;;;;;;;;;;;;;;8.77;70.95;100007.71;1772762;81;21314;-62
2021/04/08 03:11:15;;;;;;;5.10;2.55;;;;;;;8.65;70.02;100026.19;1766574;81;20378;-62
2021/04/08 03:13:48;;;;;;;2.05;1.50;;;;;;;8.49;68.84;100024.05;1768155;81;21205;-60
2021/04/08 03:16:23;;;;;;;1.42;1.00;;;;;;;8.37;67.56;100008.59;1770722;81;21334;-61
2021/04/08 03:18:57;;;;;;;1.90;1.27;;;;;;;8.21;66.97;100006.87;1770326;79;21318;-62
2021/04/08 03:21:30;;;;;;;2.35;1.52;;;;;;;8.02;66.37;100008.88;1770082;81;22120;-60
2021/04/08 03:24:04;;;;;;;2.10;1.77;;;;;;;7.87;66.54;100017.94;1771317;81;21311;-60
2021/04/08 03:26:37;;;;;;;5.37;2.90;;;;;;;7.72;66.51;100030.42;1771820;81;21899;-60
2021/04/08 03:29:10;;;;;;;4.13;2.33;;;;;;;7.59;66.72;100034.98;1771395;79;21371;-62
2021/04/08 03:31:43;;;;;;;1.22;1.10;;;;;;;7.47;66.55;100028.14;1772405;81;21606;-61
2021/04/08 03:34:18;;;;;;;2.20;1.52;;;;;;;7.44;66.75;100051.34;1770041;81;21342;-61
2021/04/08 03:36:51;;;;;;;1.40;1.00;;;;;;;7.43;66.80;100060.09;1771242;81;21173;-60
2021/04/08 03:39:24;;;;;;;2.53;1.57;;;;;;;7.53;66.77;100085.41;1769517;79;22123;-62
2021/04/08 03:41:57;;;;;;;2.20;1.60;;;;;;;7.70;66.59;100100.55;1770410;81;21256;-61
2021/04/08 03:44:31;;;;;;;2.90;2.00;;;;;;;7.80;66.12;100111.90;1765472;80;22113;-62
2021/04/08 03:47:04;;;;;;;1.30;1.20;;;;;;;7.82;65.69;100119.95;1742049;81;21350;-61
2021/04/08 03:49:37;;;;;;;2.22;1.27;;;;;;;7.79;65.50;100121.48;1769474;81;22193;-61
2021/04/08 03:52:12;;;;;;;1.35;1.25;;;;;;;7.80;65.37;100114.50;1770244;81;21804;-61
2021/04/08 03:54:44;;;;;;;;;;;;;;;7.87;65.14;100110.46;1772671;81;21315;-62
2021/04/08 03:57:19;;;;;;;2.08;1.72;;;;;;;7.93;64.89;100102.13;1771121;81;20752;-61
2021/04/08 03:59:52;;;;;;;3.52;2.08;;;;;;;7.95;64.49;100101.56;1770003;81;21251;-61
2021/04/08 04:02:25;;;;;;;2.95;2.62;;;;;;;7.97;64.28;100114.83;1769882;81;21296;-62
2021/04/08 04:04:58;;;;;;;4.03;2.10;;;;;;;7.98;64.13;100134.72;1739680;81;22012;-60
2021/04/08 04:07:35;;;;;;;2.23;1.97;;;;;;;7.98;64.16;100147.75;1770900;80;21279;-60
2021/04/08 04:10:09;;;;;;;1.90;1.70;;;;;;;7.97;64.08;100142.67;1750291;80;21319;-60
2021/04/08 04:12:44;;;;;;;2.12;1.70;;;;;;;7.97;63.84;100135.68;1772672;81;21312;-64
2021/04/08 04:15:18;;;;;;;2.40;1.77;;;;;;;8.07;63.31;100142.30;1771599;81;21260;-60
2021/04/08 04:17:52;;;;;;;1.65;1.55;;;;;;;8.20;63.05;100144.25;1775114;81;21749;-62
2021/04/08 04:20:25;;;;;;;2.43;1.53;;;;;;;8.36;62.58;100159.54;1773779;79;21205;-61
2021/04/08 04:22:58;;;;;;;2.47;1.80;;;;;;;8.54;62.23;100159.34;1772536;81;21145;-60
2021/04/08 04:25:31;;;;;;;3.05;2.05;;;;;;;8.70;61.44;100161.03;1771013;81;21665;-62
2021/04/08 04:28:05;;;;;;;3.02;2.17;;;;;;;8.78;61.06;100164.68;1772179;81;21319;-62
2021/04/08 04:30:38;;;;;;;2.67;1.32;;;;;;;8.81;59.98;100150.55;1771667;81;21219;-62
2021/04/08 04:33:11;;;;;;;2.90;2.25;;;;;;;8.78;59.53;100164.68;1773019;81;21764;-62
2021/04/08 04:35:44;;;;;;;12.77;7.17;;;;;;;8.88;59.54;100184.33;1773637;79;21630;-64
2021/04/08 04:38:17;;;;;;;3.17;2.27;;;;;;;9.05;59.46;100179.81;1774247;81;21257;-61
2021/04/08 04:40:52;;;;;;;3.65;2.20;;;;;;;9.29;59.20;100185.59;1773874;79;21731;-61
2021/04/08 04:43:25;;;;;;;3.08;2.40;;;;;;;9.56;58.48;100183.73;1770901;81;21193;-61
2021/04/08 04:46:52;;;;;;;3.77;2.75;;;;;;;9.79;58.08;100177.84;1769130;81;21647;-65
2021/04/08 04:50:16;;;;;;;2.87;2.02;;;;;;;10.02;57.50;100178.80;1770001;81;21338;-62
2021/04/08 04:52:49;;;;;;;3.60;2.67;;;;;;;10.35;55.87;100191.20;1761826;80;21204;-60
2021/04/08 04:59:39;;;;;;;3.35;2.10;;;;;;;10.55;54.62;100214.66;1732675;82;22002;-59
2021/04/08 05:02:12;;;;;;;1.60;1.45;;;;;;;10.48;54.73;100223.19;1770644;80;21358;-60
2021/04/08 05:04:45;;;;;;;2.95;2.00;;;;;;;10.45;54.47;100236.53;1748422;81;21315;-63
2021/04/08 05:11:29;;;;;;;1.60;1.37;;;;;;;10.47;54.36;100238.53;1761489;80;21164;-60
2021/04/08 05:14:02;;;;;;;3.42;2.83;;;;;;;10.38;54.41;100241.97;1764325;81;21197;-68
2021/04/08 05:16:35;;;;;;;6.47;4.42;;;;;;;10.39;54.27;100251.48;1765361;81;21181;-66
2021/04/08 05:23:18;;;;;;;2.45;1.62;;;;;;;10.54;53.56;100244.40;1765283;81;21260;-64
2021/04/08 05:30:02;;;;;;;2.22;1.30;;;;;;;10.52;53.84;100259.89;1765172;79;21207;-64
2021/04/08 05:32:35;;;;;;;4.20;2.08;;;;;;;10.45;53.71;100243.08;1765286;81;21217;-66
2021/04/08 05:35:09;;;;;;;2.15;1.52;;;;;;;10.49;53.60;100259.69;1765102;81;22091;-68
2021/04/08 05:37:42;;;;;;;;;;;;;;;10.48;53.41;100267.69;1768139;81;21338;-69
2021/04/08 05:40:16;;;;;;;1.82;1.42;;;;;;;10.43;53.67;100277.72;1764834;81;20334;-72
2021/04/08 05:42:51;;;;;;;2.58;2.00;;;;;;;10.34;53.85;100282.45;1764806;81;21240;-71
2021/04/08 05:45:27;;;;;;;2.00;1.70;;;;;;;10.26;53.94;100299.30;1764654;81;21315;-62
2021/04/08 05:47:59;;;;;;;6.08;1.90;;;;;;;10.10;53.62;100299.77;1765178;81;21232;-64
2021/04/08 05:50:32;;;;;;;1.67;1.40;;;;;;;9.89;53.79;100314.17;1764770;81;21619;-68
2021/04/08 05:53:05;;;;;;;1.55;1.45;;;;;;;9.72;54.14;100324.42;1766591;81;21228;-61
2021/04/08 05:55:38;;;;;;;1.90;1.70;;;;;;;9.61;54.61;100336.23;1765191;80;22160;-68
2021/04/08 05:58:11;;;;;;;3.43;1.53;;;;;;;9.55;55.26;100338.07;1765481;81;21342;-65
2021/04/08 06:00:44;;;;;;;4.40;2.20;;;;;;;9.66;55.43;100337.99;1765025;81;21537;-66
2021/04/08 06:03:17;;;;;;;11.45;3.77;;;;;;;9.80;55.10;100348.95;1765064;81;21295;-63
2021/04/08 06:05:52;;;;;;;5.20;2.30;;;;;;;9.76;53.96;100346.26;1764972;81;21259;-70
2021/04/08 06:08:25;;;;;;;11.08;3.00;;;;;;;9.56;54.54;100352.30;1765485;81;21193;-62
2021/04/08 06:11:02;;;;;;;28.38;7.20;;;;;;;9.42;55.09;100370.91;1764705;80;21165;-61
2021/04/08 06:13:37;;;;;;;30.52;7.85;;;;;;;9.31;55.43;100380.11;1764644;80;21205;-66
2021/04/08 06:16:11;;;;;;;13.43;3.83;;;;;;;9.25;55.80;100381.90;1764831;81;21260;-66
2021/04/08 06:18:46;;;;;;;48.35;10.05;;;;;;;9.20;56.20;100386.66;1763589;81;21983;-71
2021/04/08 06:21:19;;;;;;;66.42;13.72;;;;;;;9.13;55.87;100395.95;1765523;81;21303;-66
2021/04/08 06:23:54;;;;;;;32.65;7.00;;;;;;;9.03;55.78;100397.66;1765756;81;21169;-60
2021/04/08 06:26:27;;;;;;;12.85;3.55;;;;;;;8.95;55.87;100400.88;1764874;81;21210;-61
2021/04/08 06:29:00;;;;;;;7.35;3.22;;;;;;;8.91;56.07;100406.47;1765386;81;21188;-63
2021/04/08 06:31:35;;;;;;;4.75;2.77;;;;;;;8.89;56.13;100405.27;1761504;80;22034;-61
2021/04/08 06:34:09;;;;;;;2.75;1.98;;;;;;;8.88;56.16;100409.31;1764790;81;21482;-57
2021/04/08 06:36:42;;;;;;;8.85;2.55;;;;;;;8.87;55.41;100405.03;1764752;80;22145;-59
2021/04/08 06:39:15;;;;;;;3.00;1.97;;;;;;;8.86;55.38;100406.00;1765867;81;21241;-58
2021/04/08 06:41:48;;;;;;;2.45;1.80;;;;;;;8.95;55.45;100410.02;1764750;81;21846;-63
2021/04/08 06:44:24;;;;;;;3.42;1.92;;;;;;;9.18;55.48;100413.39;1765610;81;21477;-60
2021/04/08 06:47:03;;;;;;;2.00;1.60;;;;;;;9.46;55.14;100421.48;1764409;80;21319;-63
2021/04/08 06:49:45;;;;;;;2.37;1.70;;;;;;;9.76;54.52;100424.69;1765614;81;21476;-59
2021/04/08 06:52:19;;;;;;;3.70;2.55;;;;;;;9.96;53.34;100410.77;1764839;80;21424;-61
2021/04/08 06:54:53;;;;;;;5.58;2.90;;;;;;;10.11;52.64;100416.51;1764461;81;21470;-62
2021/04/08 06:57:26;;;;;;;3.17;2.60;;;;;;;10.26;52.42;100424.88;1764478;80;21264;-70
2021/04/08 06:59:59;;;;;;;3.25;2.25;;;;;;;10.40;52.53;100437.63;1765435;81;21174;-65
2021/04/08 07:02:32;;;;;;;3.07;2.10;;;;;;;10.55;52.33;100456.80;1764545;81;21511;-65
2021/04/08 07:05:07;;;;;;;;;;;;;;;10.64;50.81;100446.00;1767136;81;21498;-62
2021/04/08 07:07:39;;;;;;;12.45;6.20;;;;;;;10.67;51.06;100449.67;1764504;81;20221;-61
2021/04/08 07:10:12;;;;;;;6.22;4.03;;;;;;;10.65;50.82;100454.22;1765536;81;21161;-60
2021/04/08 07:16:31;;;;;;;2.97;2.00;;;;;;;10.84;50.38;100470.81;1766517;80;21136;-62
2021/04/08 07:19:06;;;;;;;2.60;1.92;;;;;;;10.84;50.38;100470.81;1772504;81;21732;-61
2021/04/08 07:21:41;;;;;;;3.75;2.40;;;;;;;10.94;50.31;100466.91;1770644;81;21852;-60
2021/04/08 07:24:20;;;;;;;2.62;2.27;;;;;;;11.17;50.00;100462.30;1770775;81;21969;-60
2021/04/08 07:26:57;;;;;;;3.98;3.33;;;;;;;11.47;49.56;100474.00;1770689;81;21189;-60
2021/04/08 07:29:58;;;;;;;3.62;3.12;;;;;;;11.67;48.10;100485.34;1770509;81;21201;-61
2021/04/08 07:32:37;;;;;;;6.22;4.08;;;;;;;11.83;47.80;100491.72;1770394;81;21315;-60
2021/04/08 07:35:19;;;;;;;3.72;3.30;;;;;;;11.92;47.16;100490.89;1770095;81;21350;-60
2021/04/08 07:37:58;;;;;;;4.28;3.87;;;;;;;12.01;46.99;100496.61;1769665;81;21252;-61
2021/04/08 07:40:31;;;;;;;5.92;4.25;;;;;;;12.22;46.85;100487.75;1770287;81;21199;-61
2021/04/08 07:43:15;;;;;;;5.28;4.58;;;;;;;12.51;46.34;100510.84;1769462;79;21311;-61
2021/04/08 07:45:48;;;;;;;7.72;4.28;;;;;;;12.81;45.86;100496.16;1769716;81;21590;-61
2021/04/08 07:48:21;;;;;;;;;;;;;;;13.23;44.61;100491.30;1773949;79;21299;-69
2021/04/08 07:50:59;;;;;;;9.35;4.37;;;;;;;13.96;43.53;100492.83;1746347;81;20282;-72
2021/04/08 07:53:32;;;;;;;6.05;4.15;;;;;;;14.58;42.49;100483.44;1769530;79;21368;-66
2021/04/08 07:56:08;;;;;;;;;;;;;;;14.78;41.87;100507.25;1772335;81;21331;-62
2021/04/08 07:58:42;;;;;;;6.17;4.30;;;;;;;14.82;41.52;100509.09;1769478;80;20270;-59
2021/04/08 08:01:21;;;;;;;6.17;5.30;;;;;;;14.71;41.48;100514.64;1770606;81;21310;-59
2021/04/08 08:03:55;;;;;;;6.10;4.25;;;;;;;14.61;40.93;100518.70;1769504;81;21307;-62
2021/04/08 08:06:38;;;;;;;8.33;6.62;;;;;;;14.43;40.44;100526.30;1769622;81;21189;-62
2021/04/08 08:09:12;;;;;;;5.95;5.22;;;;;;;14.36;40.75;100534.47;1769243;81;21319;-63
2021/04/08 08:11:45;;;;;;;7.55;5.20;;;;;;;14.25;40.60;100553.13;1770837;81;21311;-60
2021/04/08 08:18:38;;;;;;;5.30;3.50;;;;;;;13.95;41.14;100553.85;1770175;79;21148;-71
2021/04/08 08:21:35;;;;;;;5.25;3.72;;;;;;;13.74;40.91;100558.58;1770947;81;21240;-66
2021/04/08 08:24:11;;;;;;;3.90;3.37;;;;;;;13.71;40.81;100565.96;1737064;81;21989;-66
2021/04/08 08:26:52;;;;;;;3.20;2.87;;;;;;;13.72;40.75;100571.55;1769306;81;21591;-66
2021/04/08 08:29:29;;;;;;;7.58;3.80;;;;;;;13.73;39.67;100574.53;1769639;79;21299;-60
2021/04/08 08:36:13;;;;;;;4.00;3.08;;;;;;;13.75;41.09;100587.05;1744188;81;21291;-67
2021/04/08 08:38:46;;;;;;;;;;;;;;;14.72;39.70;100583.00;1744562;81;21165;-69
2021/04/08 08:41:20;;;;;;;4.85;4.20;;;;;;;15.10;38.71;100584.38;1773023;81;20295;-64
2021/04/08 08:43:55;;;;;;;4.33;3.65;;;;;;;15.23;38.52;100590.05;1773829;81;22090;-61
2021/04/08 08:46:29;;;;;;;3.50;2.80;;;;;;;15.30;37.41;100581.01;1771291;81;21372;-69
2021/04/08 08:49:02;;;;;;;;;;;;;;;15.40;37.63;100583.84;1772548;81;21247;-69
2021/04/08 08:51:36;;;;;;;4.22;2.95;;;;;;;15.76;37.12;100577.08;1770677;81;20274;-68
2021/04/08 08:54:10;;;;;;;7.47;3.75;;;;;;;16.18;36.83;100577.31;1741697;81;21448;-60
2021/04/08 08:56:44;;;;;;;3.58;2.62;;;;;;;16.79;36.07;100574.16;1772327;81;21216;-70
2021/04/08 08:59:17;;;;;;;5.45;3.55;;;;;;;17.61;34.98;100573.41;1772676;79;21326;-65
2021/04/08 09:01:51;;;;;;;5.20;2.98;;;;;;;18.51;33.33;100580.61;1773111;81;21623;-59
2021/04/08 09:04:25;;;;;;;7.35;3.17;;;;;;;19.17;33.06;100573.95;1741328;81;21439;-61
2021/04/08 09:07:07;;;;;;;5.58;2.50;;;;;;;19.92;31.61;100572.30;1772350;81;21291;-59
2021/04/08 09:09:46;;;;;;;4.35;2.60;;;;;;;20.55;30.10;100581.64;1771836;79;22119;-58
2021/04/08 09:12:19;;;;;;;7.22;3.05;;;;;;;21.04;29.12;100578.09;1770757;81;21410;-58
2021/04/08 09:14:53;;;;;;;10.35;4.80;;;;;;;21.18;28.82;100573.19;1744724;81;21314;-62
2021/04/08 09:17:45;;;;;;;3.87;3.47;;;;;;;20.86;28.77;100579.92;1770094;81;21220;-62
2021/04/08 09:20:19;;;;;;;4.42;3.83;;;;;;;20.41;28.61;100581.72;1734211;82;21218;-60
2021/04/08 09:23:06;;;;;;;7.40;2.98;;;;;;;19.58;29.16;100578.29;1733803;82;21351;-60
2021/04/08 09:25:41;;;;;;;4.17;2.72;;;;;;;19.07;29.83;100584.02;1733761;82;21195;-58
2021/04/08 09:32:38;;;;;;;3.30;2.67;;;;;;;18.72;29.56;100588.69;1735165;82;21131;-62
2021/04/08 09:35:16;;;;;;;3.42;2.77;;;;;;;17.95;29.65;100595.06;1712434;82;21984;-60
2021/04/08 09:38:06;;;;;;;4.30;2.70;;;;;;;17.31;30.35;100610.25;1733964;82;21219;-62
2021/04/08 09:40:48;;;;;;;3.10;2.65;;;;;;;16.78;30.98;100612.19;1707513;82;21337;-60
2021/04/08 09:47:35;;;;;;;3.45;2.55;;;;;;;16.46;32.12;100602.91;1734068;82;21866;-60
2021/04/08 09:50:10;;;;;;;3.83;3.17;;;;;;;16.42;32.17;100604.72;1734325;82;21203;-64
2021/04/08 09:52:55;;;;;;;5.75;3.10;;;;;;;16.30;32.04;100600.27;1735076;82;21977;-65
2021/04/08 10:03:48;;;;;;;5.12;2.50;;;;;;;16.75;31.26;100607.22;1734993;82;21246;-69
2021/04/08 10:10:42;;;;;;;2.92;2.42;;;;;;;16.66;31.07;100624.09;1713715;82;21346;-61
2021/04/08 10:13:29;;;;;;;6.30;4.03;;;;;;;16.41;30.95;100617.59;1736079;82;21195;-65
2021/04/08 10:16:09;;;;;;;8.13;4.65;;;;;;;16.22;31.27;100620.06;1734157;81;21466;-70
2021/04/08 10:18:42;;;;;;;5.58;3.40;;;;;;;15.95;31.35;100618.52;1738990;81;21346;-73
2021/04/08 10:21:43;;;;;;;10.88;3.70;;;;;;;15.71;31.42;100620.29;1769749;79;21339;-69
2021/04/08 10:28:49;;;;;;;26.00;5.87;;;;;;;15.37;32.15;100632.98;1675207;85;21961;-70
2021/04/08 10:31:32;;;;;;;4.12;3.35;;;;;;;15.29;32.22;100626.34;1753624;79;21315;-67
2021/04/08 10:34:11;;;;;;;4.78;3.47;;;;;;;15.25;32.15;100632.09;1768562;80;21463;-65
2021/04/08 10:36:59;;;;;;;7.30;3.67;;;;;;;15.22;32.43;100623.16;1769282;81;21244;-66
2021/04/08 10:39:31;;;;;;;10.03;4.75;;;;;;;15.26;32.21;100629.80;1771704;81;21455;-68
2021/04/08 10:42:13;;;;;;;8.58;3.72;;;;;;;15.30;31.99;100627.17;1770654;81;21502;-70
2021/04/08 10:44:48;;;;;;;5.53;4.05;;;;;;;15.26;32.46;100620.56;1770472;81;22013;-68
2021/04/08 10:47:26;;;;;;;4.62;3.00;;;;;;;15.18;32.23;100618.70;1770415;81;21193;-67
2021/04/08 10:50:01;;;;;;;5.22;3.52;;;;;;;15.01;31.32;100623.55;1770638;79;21236;-68
2021/04/08 10:52:40;;;;;;;4.80;2.80;;;;;;;14.88;31.43;100624.44;1769059;81;21188;-64
2021/04/08 10:55:15;;;;;;;3.10;2.75;;;;;;;14.79;31.45;100618.78;1770483;80;21299;-69
2021/04/08 10:57:48;;;;;;;5.67;3.20;;;;;;;14.67;31.27;100611.62;1770470;81;21583;-67
2021/04/08 11:00:25;;;;;;;7.60;3.50;;;;;;;14.53;31.91;100607.38;1770659;79;21359;-70
2021/04/08 11:03:00;;;;;;;5.15;3.33;;;;;;;14.47;32.10;100619.86;1770693;81;21501;-71
2021/04/08 11:05:35;;;;;;;6.75;3.55;;;;;;;14.43;32.50;100614.05;1769844;79;21311;-61
2021/04/08 11:08:09;;;;;;;4.28;3.27;;;;;;;14.45;32.62;100621.83;1770694;81;21303;-69
2021/04/08 11:10:42;;;;;;;6.10;3.22;;;;;;;14.41;32.36;100615.19;1772071;79;21809;-71
2021/04/08 11:13:16;;;;;;;5.80;3.55;;;;;;;14.38;31.67;100615.48;1770679;81;21283;-71
2021/04/08 11:15:50;;;;;;;8.78;3.58;;;;;;;14.38;31.68;100618.11;1770912;79;21259;-69
2021/04/08 11:18:25;;;;;;;4.45;3.42;;;;;;;14.33;32.29;100611.18;1769000;81;21200;-70
2021/04/08 11:20:59;;;;;;;5.37;3.17;;;;;;;14.34;32.38;100612.34;1770067;79;22163;-69
2021/04/08 11:23:32;;;;;;;4.75;3.17;;;;;;;14.33;32.54;100619.08;1697189;81;21185;-71
2021/04/08 11:26:07;;;;;;;6.37;3.67;;;;;;;14.29;32.16;100623.78;1765241;81;21299;-65
2021/04/08 11:28:44;;;;;;;6.15;3.92;;;;;;;14.16;32.45;100629.92;1764855;81;21173;-63
2021/04/08 11:31:18;;;;;;;6.22;4.20;;;;;;;14.04;32.97;100627.97;1744647;81;21358;-65
2021/04/08 11:34:04;;;;;;;5.37;3.70;;;;;;;13.98;33.10;100621.16;1765331;81;21165;-68
2021/04/08 11:36:36;;;;;;;6.20;4.40;;;;;;;13.96;32.93;100618.69;1763073;79;21379;-63
2021/04/08 11:39:13;;;;;;;4.75;3.40;;;;;;;13.99;32.91;100619.72;1766557;81;21316;-63
2021/04/08 11:41:47;;;;;;;4.65;3.87;;;;;;;14.01;32.86;100621.71;1765448;81;21456;-65
2021/04/08 11:44:26;;;;;;;6.12;3.98;;;;;;;14.01;32.39;100627.45;1765671;81;22097;-61
2021/04/08 11:47:12;;;;;;;5.33;4.08;;;;;;;14.03;32.29;100639.50;1764849;81;22010;-61
2021/04/08 11:49:48;;;;;;;4.12;3.17;;;;;;;14.01;32.41;100636.19;1764430;81;21403;-65
2021/04/08 11:52:28;;;;;;;4.65;3.17;;;;;;;13.94;32.35;100627.23;1750174;80;22072;-69
2021/04/08 11:55:07;;;;;;;4.60;3.58;;;;;;;13.87;32.19;100632.75;1765436;81;21451;-63
2021/04/08 11:57:40;;;;;;;9.53;4.20;;;;;;;13.81;32.44;100658.32;1764037;79;21323;-65
2021/04/08 12:00:15;;;;;;;9.58;3.98;;;;;;;13.80;32.55;100675.11;1719192;81;21318;-67
2021/04/08 12:02:48;;;;;;;4.15;3.40;;;;;;;13.84;33.02;100675.62;1765420;81;21330;-64
2021/04/08 12:05:24;;;;;;;5.62;4.17;;;;;;;13.81;32.91;100678.54;1769290;81;21778;-71
2021/04/08 12:07:58;;;;;;;6.40;4.53;;;;;;;13.74;33.05;100665.15;1767944;81;21299;-66
2021/04/08 12:10:33;;;;;;;;;;;;;;;13.74;33.32;100654.63;1767936;81;22112;-66
2021/04/08 12:13:10;;;;;;;3.45;2.80;;;;;;;13.76;32.63;100656.62;1765007;81;20263;-63
2021/04/08 12:15:47;;;;;;;5.30;3.60;;;;;;;13.76;32.41;100668.94;1765507;81;21578;-66
2021/04/08 12:18:29;;;;;;;4.78;3.65;;;;;;;13.78;32.39;100676.23;1764285;81;21346;-59
2021/04/08 12:21:09;;;;;;;4.00;3.25;;;;;;;13.78;32.24;100680.98;1765805;81;22058;-63
2021/04/08 12:23:42;;;;;;;9.40;4.15;;;;;;;13.79;32.49;100686.59;1760045;80;21253;-61
2021/04/08 12:26:18;;;;;;;6.15;3.58;;;;;;;13.81;32.20;100687.75;1760893;80;21314;-60
2021/04/08 12:28:51;;;;;;;9.98;4.50;;;;;;;13.75;32.51;100682.61;1761575;81;21310;-66
2021/04/08 12:31:25;;;;;;;9.10;4.87;;;;;;;13.71;32.53;100673.84;1770517;81;21224;-66
2021/04/08 12:33:58;;;;;;;8.43;3.85;;;;;;;13.69;32.28;100672.64;1769019;79;21441;-65
2021/04/08 12:36:32;;;;;;;5.83;3.85;;;;;;;13.70;32.40;100668.22;1770628;81;21977;-63
2021/04/08 12:39:05;;;;;;;;;;;;;;;13.76;32.07;100679.47;1771586;81;21402;-64
2021/04/08 12:41:38;;;;;;;10.25;5.60;;;;;;;13.80;31.96;100684.31;1770185;81;20278;-62
2021/04/08 12:44:12;;;;;;;19.57;9.80;;;;;;;13.77;32.29;100691.18;1769236;79;22132;-62
2021/04/08 12:46:46;;;;;;;7.85;4.83;;;;;;;13.65;32.57;100691.02;1771670;81;21309;-67
2021/04/08 12:49:19;;;;;;;7.53;4.58;;;;;;;13.48;32.49;100686.04;1770389;79;21338;-69
2021/04/08 12:51:52;;;;;;;4.58;3.00;;;;;;;13.29;33.30;100693.16;1771112;81;21479;-65
2021/04/08 12:54:25;;;;;;;8.80;3.17;;;;;;;13.18;33.18;100703.34;1769272;79;21295;-71
2021/04/08 12:57:00;;;;;;;4.25;2.70;;;;;;;13.15;33.20;100700.17;1770078;81;21876;-65
2021/04/08 12:59:45;;;;;;;5.25;2.80;;;;;;;13.16;33.38;100708.42;1743973;81;21478;-63
2021/04/08 13:02:19;;;;;;;4.83;3.40;;;;;;;13.16;33.28;100711.86;1743382;82;21284;-64
2021/04/08 13:04:52;;;;;;;5.67;3.30;;;;;;;13.16;33.29;100719.74;1745013;82;21354;-64